Time;durP1;ratioP1;P1;durP2;ratioP2;P2;SDS_P1;SDS_P2;PMS_P1;PMS_P2;Temp;Humidity;BMP_temperature;BMP_pressure;BME280_temperature;BME280_humidity;BME280_pressure;Samples;Min_cycle;Max_cycle;Signal;HPM_P1;HPM_P2
2023/09/12 00:00:00;;;;;;;5.93;5.20;;;;;;;13.60;100.00;92872.88;2560209;23;20001;-91
2023/09/12 00:01:06;;;;;;;8.05;5.53;;;;;;;13.50;100.00;92870.59;2571890;23;20080;-92
2023/09/12 00:02:09;;;;;;;8.45;5.22;;;;;;;13.37;100.00;92867.25;2584727;22;20028;-91
2023/09/12 00:03:13;;;;;;;9.57;5.70;;;;;;;13.39;100.00;92870.22;2583596;23;20309;-92
2023/09/12 00:04:16;;;;;;;7.50;5.35;;;;;;;13.51;100.00;92872.09;2571429;23;20001;-91
2023/09/12 00:05:20;;;;;;;6.30;5.45;;;;;;;13.48;100.00;92873.72;2559927;23;20333;-90
2023/09/12 00:06:24;;;;;;;6.82;5.95;;;;;;;13.43;100.00;92874.28;2559899;23;20408;-91
2023/09/12 00:07:28;;;;;;;7.85;5.40;;;;;;;13.51;100.00;92869.41;2560240;23;20043;-90
2023/09/12 00:08:32;;;;;;;9.05;5.85;;;;;;;13.53;100.00;92867.78;2560066;23;20000;-90
2023/09/12 00:09:42;;;;;;;8.52;5.63;;;;;;;13.54;100.00;92873.91;2559974;23;20001;-89
2023/09/12 00:10:43;;;;;;;7.82;5.65;;;;;;;13.55;100.00;92870.03;2572702;23;20009;-90
2023/09/12 00:11:44;;;;;;;7.43;5.97;;;;;;;13.49;100.00;92869.09;2571131;23;20065;-91
2023/09/12 00:12:53;;;;;;;7.95;5.75;;;;;;;13.41;100.00;92871.31;2583555;22;20005;-90
2023/09/12 00:13:54;;;;;;;8.73;5.85;;;;;;;13.34;100.00;92866.19;2572670;23;20007;-92
2023/09/12 00:14:58;;;;;;;11.20;5.43;;;;;;;13.28;100.00;92866.00;2558883;23;20005;-91
2023/09/12 00:16:02;;;;;;;7.95;5.63;;;;;;;13.30;100.00;92866.34;2559496;23;20001;-91
2023/09/12 00:17:06;;;;;;;7.10;5.68;;;;;;;13.26;100.00;92871.06;2572526;22;20510;-91
2023/09/12 00:18:10;;;;;;;7.97;5.68;;;;;;;13.26;100.00;92873.00;2584333;22;20004;-90
2023/09/12 00:19:14;;;;;;;10.27;5.57;;;;;;;13.32;100.00;92857.81;2583332;23;20075;-93
2023/09/12 00:20:18;;;;;;;7.28;5.45;;;;;;;13.28;100.00;92860.63;2559849;23;20004;-90
2023/09/12 00:21:20;;;;;;;7.07;5.28;;;;;;;13.35;100.00;92862.31;2560376;23;20361;-92
2023/09/12 00:22:30;;;;;;;8.63;5.10;;;;;;;13.31;100.00;92864.38;2571288;23;20060;-89
2023/09/12 00:23:31;;;;;;;9.25;6.28;;;;;;;13.27;100.00;92859.16;2572800;23;20082;-90
2023/09/12 00:24:32;;;;;;;8.45;5.80;;;;;;;13.26;100.00;92857.66;2571253;22;20000;-90
2023/09/12 00:25:36;;;;;;;9.07;6.15;;;;;;;13.34;100.00;92860.81;2571065;23;20131;-92
2023/09/12 00:26:41;;;;;;;9.93;5.90;;;;;;;13.34;100.00;92858.13;2572593;22;19997;-90
2023/09/12 00:27:44;;;;;;;9.07;5.53;;;;;;;13.38;100.00;92858.00;2571182;23;20005;-90
2023/09/12 00:28:48;;;;;;;7.10;5.75;;;;;;;13.35;100.00;92851.59;2571592;23;20365;-90
2023/09/12 00:29:52;;;;;;;8.95;5.65;;;;;;;13.32;100.00;92855.16;2560008;23;20532;-90
2023/09/12 00:30:56;;;;;;;12.50;5.78;;;;;;;13.33;100.00;92857.38;2559603;23;20005;-90
2023/09/12 00:32:00;;;;;;;11.75;5.68;;;;;;;13.36;100.00;92850.41;2572042;22;20032;-91
2023/09/12 00:33:04;;;;;;;11.95;6.07;;;;;;;13.31;100.00;92848.28;2571859;23;20447;-90
2023/09/12 00:34:08;;;;;;;10.30;6.07;;;;;;;13.28;100.00;92852.59;2571594;23;20000;-90
2023/09/12 00:35:12;;;;;;;9.02;6.05;;;;;;;13.25;100.00;92852.72;2571512;23;20451;-90
2023/09/12 00:36:16;;;;;;;8.30;6.00;;;;;;;13.41;100.00;92852.50;2559586;23;20352;-90
2023/09/12 00:37:26;;;;;;;8.88;6.60;;;;;;;13.33;100.00;92856.63;2571708;23;20040;-90
2023/09/12 00:38:27;;;;;;;8.18;6.65;;;;;;;13.28;100.00;92854.53;2562598;23;20072;-91
2023/09/12 00:39:30;;;;;;;10.57;6.20;;;;;;;13.31;100.00;92857.09;2570799;23;20000;-89
2023/09/12 00:40:34;;;;;;;9.93;6.35;;;;;;;13.35;100.00;92856.97;2572086;22;20008;-91
2023/09/12 00:41:38;;;;;;;10.57;6.53;;;;;;;13.32;100.00;92847.09;2571835;23;20001;-89
2023/09/12 00:42:42;;;;;;;10.10;5.43;;;;;;;13.19;100.00;92851.75;2583422;23;20906;-92
2023/09/12 00:43:46;;;;;;;10.25;6.18;;;;;;;13.17;100.00;92846.06;2571383;23;20071;-90
2023/09/12 00:44:50;;;;;;;12.55;6.47;;;;;;;13.19;100.00;92846.38;2571442;23;20004;-91
2023/09/12 00:45:54;;;;;;;8.93;6.20;;;;;;;13.25;100.00;92845.41;2571255;23;20089;-91
2023/09/12 00:46:58;;;;;;;9.75;6.00;;;;;;;13.18;100.00;92842.22;2572302;22;20000;-90
2023/09/12 00:48:04;;;;;;;10.93;6.13;;;;;;;13.12;100.00;92850.06;2571615;23;19997;-89
2023/09/12 00:49:07;;;;;;;9.77;6.15;;;;;;;13.17;100.00;92852.22;2560368;23;20091;-92
2023/09/12 00:50:11;;;;;;;8.60;6.20;;;;;;;13.14;100.00;92846.97;2559629;23;20005;-92
2023/09/12 00:51:15;;;;;;;7.95;5.45;;;;;;;13.18;100.00;92847.59;2572395;22;20494;-89
2023/09/12 00:52:17;;;;;;;10.43;6.05;;;;;;;13.24;100.00;92840.47;2571082;23;20066;-91
2023/09/12 00:53:22;;;;;;;8.77;6.10;;;;;;;13.22;100.00;92848.97;2571410;23;20625;-90
2023/09/12 00:54:25;;;;;;;8.00;6.53;;;;;;;13.17;100.00;92844.16;2571771;23;20035;-90
2023/09/12 00:55:32;;;;;;;11.25;6.82;;;;;;;13.18;100.00;92845.66;2571539;23;20005;-91
2023/09/12 00:56:34;;;;;;;8.15;5.88;;;;;;;13.26;100.00;92849.59;2572245;23;20004;-90
2023/09/12 00:57:38;;;;;;;9.32;5.95;;;;;;;13.24;100.00;92849.28;2570858;22;20010;-91
2023/09/12 00:59:20;;;;;;;9.68;6.43;;;;;;;13.18;100.00;92844.91;2583271;23;20000;-90
2023/09/12 01:00:22;;;;;;;8.95;6.05;;;;;;;13.19;100.00;92847.13;2585945;22;20442;-89
2023/09/12 01:01:23;;;;;;;8.32;6.20;;;;;;;13.22;100.00;92851.66;2570966;23;20000;-92
2023/09/12 01:02:25;;;;;;;12.55;6.65;;;;;;;13.10;100.00;92853.19;2583311;23;20078;-89
2023/09/12 01:03:29;;;;;;;10.10;6.38;;;;;;;13.12;100.00;92855.44;2570846;22;20456;-89
2023/09/12 01:04:32;;;;;;;10.35;5.95;;;;;;;13.12;100.00;92850.06;2571233;23;20396;-92
2023/09/12 01:05:37;;;;;;;8.75;7.00;;;;;;;13.05;100.00;92853.75;2559538;23;20016;-90
2023/09/12 01:06:42;;;;;;;10.05;6.47;;;;;;;13.07;100.00;92853.31;2573182;22;20000;-92
2023/09/12 01:07:46;;;;;;;8.27;5.75;;;;;;;13.03;100.00;92850.75;2584521;22;20055;-90
2023/09/12 01:08:50;;;;;;;10.45;5.95;;;;;;;13.07;100.00;92859.44;2571635;23;20515;-89
2023/09/12 01:09:54;;;;;;;11.68;6.50;;;;;;;13.01;100.00;92855.06;2572249;22;20005;-91
2023/09/12 01:10:58;;;;;;;9.38;6.15;;;;;;;12.94;100.00;92852.63;2583304;23;20505;-90
2023/09/12 01:12:02;;;;;;;9.27;6.43;;;;;;;12.96;100.00;92853.69;2571684;23;20032;-92
2023/09/12 01:13:06;;;;;;;7.38;5.35;;;;;;;12.99;100.00;92844.75;2571887;23;20058;-91
2023/09/12 01:14:10;;;;;;;10.60;5.93;;;;;;;13.03;100.00;92841.97;2559758;23;20091;-91
2023/09/12 01:15:14;;;;;;;9.98;6.18;;;;;;;12.97;100.00;92846.41;2559856;23;20088;-90
2023/09/12 01:16:17;;;;;;;8.60;6.05;;;;;;;13.02;100.00;92843.16;2584412;22;20012;-91
2023/09/12 01:17:23;;;;;;;6.78;5.68;;;;;;;12.95;100.00;92844.16;2583280;23;20011;-91
2023/09/12 01:18:24;;;;;;;7.80;5.97;;;;;;;13.07;100.00;92848.69;2584250;22;20043;-89
2023/09/12 01:19:28;;;;;;;9.48;6.15;;;;;;;13.07;100.00;92848.69;2570733;23;20001;-91
2023/09/12 01:20:35;;;;;;;10.38;6.00;;;;;;;13.15;100.00;92843.09;2559531;23;20084;-90
2023/09/12 01:21:38;;;;;;;8.65;6.22;;;;;;;13.08;100.00;92852.13;2573594;22;20408;-91
2023/09/12 01:23:17;;;;;;;12.07;6.60;;;;;;;12.99;100.00;92844.75;2583215;23;20007;-89
2023/09/12 01:24:42;;;;;;;13.27;6.20;;;;;;;12.96;100.00;92842.97;2582784;23;20059;-91
2023/09/12 01:26:18;;;;;;;11.02;6.35;;;;;;;12.81;100.00;92845.38;2568107;23;20011;-91
2023/09/12 01:27:30;;;;;;;13.02;6.60;;;;;;;12.92;100.00;92852.34;2585518;22;20469;-88
2023/09/12 01:28:34;;;;;;;9.40;6.35;;;;;;;12.94;100.00;92848.00;2572908;23;20031;-91
2023/09/12 01:29:39;;;;;;;9.55;6.78;;;;;;;12.90;100.00;92852.75;2559944;23;20039;-90
2023/09/12 01:30:45;;;;;;;11.25;6.55;;;;;;;12.82;100.00;92846.91;2560118;23;20009;-90
2023/09/12 01:31:49;;;;;;;8.80;5.72;;;;;;;12.84;100.00;92844.53;2572523;22;20062;-91
2023/09/12 01:32:50;;;;;;;11.25;6.40;;;;;;;12.78;100.00;92843.59;2584126;22;20000;-89
2023/09/12 01:33:57;;;;;;;8.93;6.55;;;;;;;12.82;100.00;92840.78;2583173;23;19996;-91
2023/09/12 01:34:58;;;;;;;11.88;6.75;;;;;;;12.77;100.00;92846.69;2560689;23;20144;-90
2023/09/12 01:36:02;;;;;;;11.45;6.43;;;;;;;12.80;100.00;92846.56;2558039;23;20009;-92
2023/09/12 01:37:06;;;;;;;8.90;5.80;;;;;;;12.75;100.00;92844.47;2559875;23;20001;-92
2023/09/12 01:38:10;;;;;;;11.50;6.38;;;;;;;12.75;100.00;92849.06;2583007;23;20004;-90
2023/09/12 01:39:14;;;;;;;10.80;6.53;;;;;;;12.73;100.00;92844.16;2571866;22;20004;-90
2023/09/12 01:42:59;;;;;;;10.38;6.47;;;;;;;12.71;100.00;92843.09;2594276;22;20028;-91
2023/09/12 01:44:02;;;;;;;9.20;6.50;;;;;;;12.73;100.00;92843.38;2580300;23;20313;-91
2023/09/12 01:45:09;;;;;;;8.73;6.28;;;;;;;12.73;100.00;92841.47;2558911;23;20012;-90
2023/09/12 01:46:10;;;;;;;8.38;5.72;;;;;;;12.81;100.00;92844.63;2560611;23;20001;-90
2023/09/12 01:47:17;;;;;;;11.15;6.75;;;;;;;12.77;100.00;92847.44;2570948;22;20324;-90
2023/09/12 01:48:24;;;;;;;11.48;6.72;;;;;;;12.78;100.00;92843.59;2572046;23;20074;-92
2023/09/12 01:49:28;;;;;;;13.13;7.03;;;;;;;12.83;100.00;92844.97;2560550;23;20515;-89
2023/09/12 01:50:31;;;;;;;8.73;6.55;;;;;;;12.86;100.00;92846.75;2560074;23;20065;-91
2023/09/12 01:51:33;;;;;;;11.70;6.57;;;;;;;12.90;100.00;92850.06;2570984;23;20032;-91
2023/09/12 01:52:35;;;;;;;12.88;7.43;;;;;;;12.97;100.00;92841.03;2570644;23;20508;-93
2023/09/12 01:53:36;;;;;;;9.68;6.10;;;;;;;12.90;100.00;92849.31;2558815;23;20001;-94
2023/09/12 01:54:42;;;;;;;11.35;6.63;;;;;;;12.85;100.00;92847.94;2570664;22;20000;-90
2023/09/12 01:55:47;;;;;;;14.93;6.93;;;;;;;12.88;100.00;92846.34;2571564;23;20080;-90
2023/09/12 01:56:48;;;;;;;9.07;7.13;;;;;;;12.82;100.00;92854.22;2572323;22;20072;-92
2023/09/12 01:57:52;;;;;;;7.65;6.47;;;;;;;12.81;100.00;92855.38;2595587;22;20412;-91
2023/09/12 01:59:02;;;;;;;9.85;6.32;;;;;;;12.72;100.00;92842.63;2571282;23;20418;-90
2023/09/12 02:00:04;;;;;;;12.88;6.40;;;;;;;12.79;100.00;92847.03;2562103;23;20025;-90
2023/09/12 02:01:05;;;;;;;11.77;6.75;;;;;;;12.83;100.00;92844.97;2571116;23;20483;-92
2023/09/12 02:02:09;;;;;;;13.80;7.20;;;;;;;12.79;100.00;92844.34;2570749;22;20011;-91
2023/09/12 02:03:44;;;;;;;12.25;6.63;;;;;;;12.77;100.00;92842.06;2571085;23;20004;-90
2023/09/12 02:05:21;;;;;;;12.10;6.40;;;;;;;12.82;100.00;92846.91;2590596;22;20011;-91
2023/09/12 02:06:25;;;;;;;9.38;6.35;;;;;;;12.80;100.00;92846.56;2572468;23;20103;-90
2023/09/12 02:07:33;;;;;;;11.57;6.93;;;;;;;12.94;100.00;92848.00;2571146;23;20427;-92
2023/09/12 02:08:34;;;;;;;10.18;6.55;;;;;;;12.93;100.00;92854.56;2584882;22;20031;-90
2023/09/12 02:09:38;;;;;;;8.25;6.82;;;;;;;12.90;100.00;92852.75;2570382;23;20364;-91
2023/09/12 02:10:42;;;;;;;11.93;7.32;;;;;;;12.81;100.00;92847.31;2583676;22;20004;-90
2023/09/12 02:11:46;;;;;;;11.63;6.82;;;;;;;12.81;100.00;92850.00;2571112;23;20079;-92
2023/09/12 02:12:50;;;;;;;9.30;6.25;;;;;;;12.85;100.00;92846.00;2571136;23;20009;-89
2023/09/12 02:13:54;;;;;;;10.85;6.72;;;;;;;12.87;100.00;92842.91;2559744;23;20004;-91
2023/09/12 02:14:58;;;;;;;9.13;6.80;;;;;;;12.78;100.00;92850.91;2559802;23;20087;-91
2023/09/12 02:16:03;;;;;;;11.25;6.63;;;;;;;12.78;100.00;92843.59;2571747;22;20004;-89
2023/09/12 02:17:04;;;;;;;12.55;6.85;;;;;;;12.77;100.00;92849.38;2571580;23;20052;-92
2023/09/12 02:18:14;;;;;;;10.40;6.95;;;;;;;12.76;100.00;92847.88;2558378;23;20029;-92
2023/09/12 02:19:15;;;;;;;8.65;7.00;;;;;;;12.76;100.00;92845.19;2562503;23;20076;-92
2023/09/12 02:20:16;;;;;;;8.20;6.35;;;;;;;12.69;100.00;92845.47;2570925;22;20008;-92
2023/09/12 04:50:21;;;;;;;12.55;9.63;;;;;;;12.41;100.00;92810.38;2621569;22;20356;-85
2023/09/12 04:51:22;;;;;;;10.27;9.05;;;;;;;12.46;100.00;92812.50;2595389;22;20068;-85
2023/09/12 04:52:23;;;;;;;13.57;9.45;;;;;;;12.45;100.00;92816.38;2570299;22;20489;-84
2023/09/12 04:53:24;;;;;;;10.05;9.00;;;;;;;12.45;100.00;92820.97;2570273;22;20135;-85
2023/09/12 04:54:29;;;;;;;11.45;8.95;;;;;;;12.50;100.00;92815.81;2570351;22;20072;-84
2023/09/12 04:55:31;;;;;;;12.93;8.93;;;;;;;12.55;100.00;92815.25;2584227;22;20038;-84
2023/09/12 04:56:39;;;;;;;15.25;8.65;;;;;;;12.73;100.00;92819.25;2595486;22;20022;-85
2023/09/12 04:57:41;;;;;;;14.88;9.40;;;;;;;12.70;100.00;92818.19;2597130;22;20758;-84
2023/09/12 04:58:43;;;;;;;15.73;9.68;;;;;;;12.64;100.00;92811.88;2582555;22;20000;-84
2023/09/12 04:59:45;;;;;;;13.38;9.30;;;;;;;12.60;100.00;92806.66;2583332;22;20012;-85
2023/09/12 05:00:47;;;;;;;10.82;8.77;;;;;;;12.63;100.00;92813.06;2582822;22;20054;-84
2023/09/12 05:01:51;;;;;;;11.38;9.27;;;;;;;12.56;100.00;92814.09;2583675;22;20011;-85
2023/09/12 05:02:52;;;;;;;12.15;10.10;;;;;;;12.55;100.00;92815.25;2595455;22;20027;-83
2023/09/12 05:03:54;;;;;;;11.80;9.68;;;;;;;12.52;100.00;92816.13;2570633;22;20012;-84
2023/09/12 05:04:57;;;;;;;15.45;9.98;;;;;;;12.52;100.00;92804.66;2570600;22;20004;-85
2023/09/12 05:05:58;;;;;;;12.18;9.80;;;;;;;12.47;100.00;92815.94;2570794;22;20375;-85
2023/09/12 05:07:00;;;;;;;14.68;9.77;;;;;;;12.44;100.00;92811.44;2570921;22;20066;-84
2023/09/12 05:08:03;;;;;;;11.63;9.73;;;;;;;12.48;100.00;92810.13;2570440;22;20439;-85
2023/09/12 05:09:05;;;;;;;11.93;9.68;;;;;;;12.51;100.00;92817.31;2583595;22;20004;-84
2023/09/12 05:10:21;;;;;;;10.55;9.43;;;;;;;12.59;100.00;92815.88;2594915;22;20053;-84
2023/09/12 05:11:24;;;;;;;15.32;10.45;;;;;;;12.58;100.00;92819.00;2589092;22;20078;-85
2023/09/12 05:12:25;;;;;;;15.82;10.55;;;;;;;12.55;100.00;92819.84;2582456;22;20004;-85
2023/09/12 05:13:31;;;;;;;11.90;10.40;;;;;;;12.46;100.00;92820.53;2570471;22;20365;-85
2023/09/12 05:14:32;;;;;;;15.52;10.73;;;;;;;12.49;100.00;92817.00;2584764;22;20008;-84
2023/09/12 05:15:36;;;;;;;12.43;10.27;;;;;;;12.49;100.00;92808.22;2582912;22;20502;-83
2023/09/12 05:16:39;;;;;;;13.02;9.80;;;;;;;12.61;100.00;92812.78;2571006;22;20084;-85
2023/09/12 05:17:40;;;;;;;12.18;9.98;;;;;;;12.56;100.00;92814.09;2570637;22;20012;-84
2023/09/12 05:18:42;;;;;;;11.32;9.88;;;;;;;12.56;100.00;92814.09;2582339;22;20052;-84
2023/09/12 05:19:44;;;;;;;15.15;10.55;;;;;;;12.59;100.00;92804.41;2582968;22;20355;-86
2023/09/12 05:20:46;;;;;;;14.65;10.85;;;;;;;12.68;100.00;92807.16;2582667;22;20459;-85
2023/09/12 05:21:48;;;;;;;12.68;9.48;;;;;;;12.69;100.00;92805.97;2582618;22;20004;-86
2023/09/12 05:22:49;;;;;;;12.77;9.73;;;;;;;12.82;100.00;92805.94;2594841;22;20004;-84
2023/09/12 05:23:51;;;;;;;12.60;10.00;;;;;;;12.81;100.00;92807.09;2582176;22;20423;-86
2023/09/12 05:24:53;;;;;;;12.63;9.95;;;;;;;12.78;100.00;92808.72;2569943;22;20000;-84
2023/09/12 05:25:55;;;;;;;14.98;10.40;;;;;;;12.79;100.00;92802.16;2582565;22;20470;-83
2023/09/12 05:26:57;;;;;;;12.40;9.93;;;;;;;12.85;100.00;92799.66;2569931;22;20004;-85
2023/09/12 05:27:59;;;;;;;13.30;10.90;;;;;;;12.93;100.00;92811.66;2570826;22;20008;-83
2023/09/12 05:29:00;;;;;;;12.77;9.95;;;;;;;12.93;100.00;92800.16;2582733;22;20075;-85
2023/09/12 05:30:02;;;;;;;12.73;10.30;;;;;;;12.90;100.00;92809.09;2582648;22;20000;-85
2023/09/12 05:31:04;;;;;;;10.77;9.55;;;;;;;12.94;100.00;92807.78;2595125;22;20055;-86
2023/09/12 05:32:06;;;;;;;11.63;10.32;;;;;;;12.98;100.00;92811.06;2569888;22;20008;-86
2023/09/12 05:33:08;;;;;;;15.10;10.75;;;;;;;13.03;100.00;92817.81;2582536;22;19996;-85
2023/09/12 05:34:14;;;;;;;12.68;10.43;;;;;;;13.09;100.00;92819.50;2570507;22;20507;-85
2023/09/12 05:35:15;;;;;;;10.60;9.52;;;;;;;13.17;100.00;92811.94;2583427;22;20556;-86
2023/09/12 05:36:18;;;;;;;14.35;10.43;;;;;;;13.06;100.00;92816.94;2582294;22;20004;-87
2023/09/12 05:37:22;;;;;;;14.52;10.27;;;;;;;13.14;100.00;92812.81;2570563;22;20003;-85
2023/09/12 05:38:32;;;;;;;13.95;11.80;;;;;;;13.11;100.00;92821.75;2583157;22;20125;-85
2023/09/12 05:39:34;;;;;;;12.70;10.77;;;;;;;13.15;100.00;92817.00;2584183;22;20013;-84
2023/09/12 05:40:36;;;;;;;13.98;10.38;;;;;;;13.27;100.00;92818.13;2582743;22;20000;-85
2023/09/12 05:41:38;;;;;;;13.48;10.45;;;;;;;13.35;100.00;92825.50;2582605;22;20053;-84
2023/09/12 05:42:40;;;;;;;13.38;10.52;;;;;;;13.37;100.00;92821.59;2570176;22;20011;-84
2023/09/12 05:43:41;;;;;;;12.80;10.77;;;;;;;13.43;100.00;92822.53;2569900;22;20004;-85
2023/09/12 05:44:44;;;;;;;11.73;10.38;;;;;;;13.50;100.00;92819.59;2582982;22;20004;-86
2023/09/12 05:45:46;;;;;;;16.50;10.27;;;;;;;13.45;100.00;92822.84;2582352;22;20415;-86
2023/09/12 05:46:50;;;;;;;14.95;11.48;;;;;;;13.48;100.00;92828.09;2582501;22;20043;-84
2023/09/12 05:47:52;;;;;;;12.50;11.05;;;;;;;13.38;100.00;92834.59;2595585;22;20004;-84
2023/09/12 05:48:54;;;;;;;16.35;10.45;;;;;;;13.46;100.00;92824.34;2582419;22;20031;-85
2023/09/12 05:49:55;;;;;;;18.85;11.52;;;;;;;13.61;100.00;92833.38;2594717;22;20022;-87
2023/09/12 05:50:57;;;;;;;13.23;11.00;;;;;;;13.64;100.00;92827.09;2582437;22;19996;-84
2023/09/12 05:51:59;;;;;;;13.00;10.63;;;;;;;13.70;100.00;92824.59;2582507;22;20008;-84
2023/09/12 05:53:00;;;;;;;13.73;10.65;;;;;;;13.62;100.00;92837.53;2582500;22;19996;-84
2023/09/12 05:54:03;;;;;;;18.70;11.75;;;;;;;13.52;100.00;92836.75;2582201;22;20091;-84
2023/09/12 05:55:05;;;;;;;13.73;11.00;;;;;;;13.57;100.00;92835.44;2570143;22;20391;-85
2023/09/12 05:56:06;;;;;;;14.38;11.27;;;;;;;13.62;100.00;92834.84;2582403;22;20011;-85
2023/09/12 05:57:09;;;;;;;13.63;10.45;;;;;;;13.62;100.00;92829.47;2582351;22;20331;-85
2023/09/12 05:58:13;;;;;;;17.70;10.85;;;;;;;13.60;100.00;92829.91;2582360;22;20008;-85
2023/09/12 05:59:26;;;;;;;12.60;10.85;;;;;;;13.50;100.00;92831.06;2583789;22;20028;-85
2023/09/12 06:00:30;;;;;;;12.80;10.68;;;;;;;13.55;100.00;92835.84;2584279;22;20000;-85
2023/09/12 06:01:32;;;;;;;13.60;10.73;;;;;;;13.56;100.00;92840.06;2571494;22;20663;-85
2023/09/12 06:02:34;;;;;;;17.17;11.82;;;;;;;13.48;100.00;92832.72;2582219;22;20014;-84
2023/09/12 06:03:36;;;;;;;12.98;11.32;;;;;;;13.43;100.00;92836.69;2595204;22;20030;-86
2023/09/12 06:04:38;;;;;;;13.35;10.45;;;;;;;13.52;100.00;92841.34;2582745;22;20012;-85
2023/09/12 06:05:40;;;;;;;13.95;11.20;;;;;;;13.51;100.00;92843.28;2570100;22;20000;-84
2023/09/12 06:06:42;;;;;;;13.82;10.75;;;;;;;13.60;100.00;92851.41;2595067;22;19999;-86
2023/09/12 06:07:44;;;;;;;15.15;11.23;;;;;;;13.66;100.00;92848.16;2582338;22;20000;-84
2023/09/12 06:08:46;;;;;;;13.70;11.85;;;;;;;13.48;100.00;92846.88;2595149;22;20345;-84
2023/09/12 06:09:48;;;;;;;15.45;11.73;;;;;;;13.53;100.00;92848.25;2583025;22;20050;-85
2023/09/12 06:10:53;;;;;;;15.35;11.32;;;;;;;13.49;100.00;92845.69;2582469;22;20043;-86
2023/09/12 06:11:55;;;;;;;15.75;11.98;;;;;;;13.58;100.00;92851.09;2582861;22;20652;-86
2023/09/12 06:12:58;;;;;;;16.40;11.63;;;;;;;13.68;100.00;92851.88;2570509;22;20007;-85
2023/09/12 06:14:00;;;;;;;14.80;11.90;;;;;;;13.65;100.00;92846.63;2570715;22;20005;-86
2023/09/12 06:15:02;;;;;;;14.82;11.35;;;;;;;13.68;100.00;92851.88;2570024;22;20000;-87
2023/09/12 06:16:06;;;;;;;13.38;11.43;;;;;;;13.77;100.00;92859.22;2595710;22;20004;-87
2023/09/12 06:17:10;;;;;;;15.35;11.43;;;;;;;13.75;100.00;92846.25;2594728;22;20026;-84
2023/09/12 06:18:12;;;;;;;14.85;11.43;;;;;;;13.69;100.00;92858.00;2571513;22;20035;-85
2023/09/12 06:19:19;;;;;;;12.90;10.70;;;;;;;13.73;100.00;92859.34;2582150;22;20015;-84
2023/09/12 06:20:21;;;;;;;17.38;12.25;;;;;;;13.75;100.00;92858.94;2572469;22;20347;-85
2023/09/12 06:21:23;;;;;;;14.25;11.30;;;;;;;13.80;100.00;92858.34;2570003;22;20000;-84
2023/09/12 06:22:29;;;;;;;18.40;12.05;;;;;;;13.85;100.00;92861.19;2582547;22;20038;-85
2023/09/12 06:23:31;;;;;;;15.77;11.23;;;;;;;13.85;100.00;92866.56;2582281;22;20363;-84
2023/09/12 06:24:32;;;;;;;11.60;10.38;;;;;;;13.81;100.00;92865.97;2582405;22;20426;-85
2023/09/12 06:25:35;;;;;;;12.77;10.10;;;;;;;13.95;100.00;92874.66;2582487;22;20028;-85
2023/09/12 06:26:37;;;;;;;12.02;10.23;;;;;;;14.06;100.00;92869.63;2570212;22;20373;-85
2023/09/12 06:27:39;;;;;;;14.32;10.80;;;;;;;14.08;100.00;92878.00;2570199;22;20005;-85
2023/09/12 06:28:40;;;;;;;14.48;11.13;;;;;;;14.15;100.00;92868.91;2582671;22;20125;-84
2023/09/12 06:29:42;;;;;;;16.00;11.02;;;;;;;14.14;100.00;92870.13;2582582;22;20000;-84
2023/09/12 06:30:45;;;;;;;17.05;11.55;;;;;;;14.16;100.00;92863.09;2582103;22;20004;-85
2023/09/12 06:31:46;;;;;;;11.93;10.57;;;;;;;14.22;100.00;92861.31;2582750;22;20008;-84
2023/09/12 06:32:47;;;;;;;17.55;11.05;;;;;;;14.22;100.00;92863.25;2595198;22;20002;-83
2023/09/12 06:33:49;;;;;;;13.85;10.90;;;;;;;14.26;100.00;92866.53;2594920;22;20066;-84
2023/09/12 06:34:50;;;;;;;14.98;11.98;;;;;;;14.32;100.00;92860.16;2582253;22;20459;-85
2023/09/12 06:35:52;;;;;;;18.13;11.88;;;;;;;14.42;100.00;92862.84;2582204;22;20050;-84
2023/09/12 06:36:54;;;;;;;15.10;11.48;;;;;;;14.44;100.00;92863.88;2581888;22;20399;-84
2023/09/12 06:37:56;;;;;;;15.90;11.98;;;;;;;14.45;100.00;92864.66;2582227;22;20074;-84
2023/09/12 06:38:59;;;;;;;18.77;10.88;;;;;;;14.45;100.00;92861.97;2569274;22;20005;-84
2023/09/12 06:40:03;;;;;;;13.00;11.05;;;;;;;14.51;100.00;92855.56;2565006;22;20031;-84
2023/09/12 06:41:04;;;;;;;16.35;11.15;;;;;;;14.58;100.00;92849.91;2579669;22;20004;-84
2023/09/12 06:42:06;;;;;;;14.93;11.13;;;;;;;14.68;100.00;92847.22;2580102;22;20015;-84
2023/09/12 06:43:14;;;;;;;14.20;10.48;;;;;;;14.82;100.00;92847.34;2580606;22;20051;-87
2023/09/12 06:44:15;;;;;;;12.93;10.63;;;;;;;14.90;100.00;92849.75;2580243;22;20325;-85
2023/09/12 06:45:17;;;;;;;13.82;10.48;;;;;;;14.92;100.00;92850.78;2578052;22;20011;-85
2023/09/12 06:46:19;;;;;;;12.90;10.25;;;;;;;14.99;100.00;92852.44;2568471;22;20560;-85
2023/09/12 06:47:20;;;;;;;14.43;10.70;;;;;;;15.04;100.00;92849.88;2593337;22;20343;-87
2023/09/12 06:48:21;;;;;;;14.77;10.40;;;;;;;15.10;100.00;92853.47;2568248;22;20012;-85
2023/09/12 06:49:23;;;;;;;14.90;10.27;;;;;;;15.19;100.00;92851.94;2568503;22;20036;-85
2023/09/12 06:50:26;;;;;;;13.88;10.65;;;;;;;15.25;100.00;92845.53;2581332;22;20659;-85
2023/09/12 06:51:28;;;;;;;13.07;10.85;;;;;;;15.31;100.00;92853.72;2579832;22;20011;-86
2023/09/12 06:52:31;;;;;;;13.85;10.10;;;;;;;15.42;100.00;92850.59;2580706;22;20008;-85
2023/09/12 06:53:32;;;;;;;14.18;10.77;;;;;;;15.48;100.00;92852.19;2579740;23;20011;-86
2023/09/12 06:54:37;;;;;;;12.38;10.63;;;;;;;15.57;100.00;92844.09;2567957;22;20624;-84
2023/09/12 06:55:38;;;;;;;13.05;10.60;;;;;;;15.67;100.00;92849.47;2580424;23;20095;-87
2023/09/12 06:56:42;;;;;;;12.20;10.80;;;;;;;15.57;100.00;92852.16;2567590;23;20020;-84
2023/09/12 06:57:46;;;;;;;16.27;11.70;;;;;;;15.62;100.00;92853.50;2579647;23;20421;-84
2023/09/12 06:58:50;;;;;;;13.93;11.60;;;;;;;15.70;100.00;92845.88;2580582;22;20066;-84
2023/09/12 06:59:51;;;;;;;14.95;10.98;;;;;;;15.71;100.00;92850.81;2569038;23;20000;-83
2023/09/12 07:00:55;;;;;;;16.17;11.27;;;;;;;15.79;100.00;92851.22;2580592;22;20032;-84
2023/09/12 07:01:56;;;;;;;14.73;10.48;;;;;;;15.81;100.00;92846.16;2580927;23;20004;-83
2023/09/12 07:02:58;;;;;;;15.75;10.48;;;;;;;15.84;100.00;92848.66;2568089;22;20008;-84
2023/09/12 07:03:59;;;;;;;12.43;10.82;;;;;;;15.93;100.00;92858.66;2569068;23;20004;-86
2023/09/12 07:05:00;;;;;;;15.13;11.30;;;;;;;15.98;100.00;92854.59;2555435;23;20075;-84
2023/09/12 07:06:03;;;;;;;11.07;9.88;;;;;;;16.13;100.00;92857.38;2568509;23;20000;-85
2023/09/12 07:07:04;;;;;;;13.60;10.88;;;;;;;16.22;100.00;92857.34;2568780;23;20008;-85
2023/09/12 07:08:05;;;;;;;12.32;9.93;;;;;;;16.28;100.00;92858.94;2568635;22;20032;-83
2023/09/12 07:09:11;;;;;;;13.35;10.07;;;;;;;16.37;100.00;92860.84;2568433;23;20004;-85
2023/09/12 07:10:12;;;;;;;13.18;9.80;;;;;;;16.55;100.00;92855.34;2569955;23;20089;-84
2023/09/12 07:11:13;;;;;;;12.70;10.55;;;;;;;16.71;100.00;92856.88;2556127;23;20087;-83
2023/09/12 07:12:17;;;;;;;12.52;9.82;;;;;;;16.74;100.00;92853.28;2568714;22;20012;-84
2023/09/12 07:13:18;;;;;;;14.85;10.50;;;;;;;16.84;100.00;92854.69;2593856;22;19999;-84
2023/09/12 07:14:22;;;;;;;11.57;10.02;;;;;;;17.13;100.00;92849.84;2594133;22;20010;-85
2023/09/12 07:15:24;;;;;;;11.63;10.18;;;;;;;17.06;100.00;92846.28;2580672;23;20055;-85
2023/09/12 07:16:30;;;;;;;11.55;10.02;;;;;;;17.16;100.00;92843.50;2557343;23;20033;-83
2023/09/12 07:17:37;;;;;;;14.63;10.05;;;;;;;17.25;100.00;92843.41;2583100;22;20004;-85
2023/09/12 07:18:38;;;;;;;13.48;10.18;;;;;;;17.32;100.00;92845.75;2594532;22;20332;-84
2023/09/12 07:19:42;;;;;;;11.82;10.43;;;;;;;17.30;100.00;92834.66;2579626;23;20011;-84
2023/09/12 07:20:45;;;;;;;11.05;9.27;;;;;;;17.47;100.00;92843.81;2578689;23;20106;-84
2023/09/12 07:21:48;;;;;;;19.10;10.85;;;;;;;17.52;100.00;92853.22;2567596;22;20523;-84
2023/09/12 07:22:49;;;;;;;12.13;10.80;;;;;;;17.59;100.00;92850.13;2580186;22;20000;-84
2023/09/12 07:23:50;;;;;;;13.77;11.05;;;;;;;17.73;100.00;92849.34;2579720;22;20047;-84
2023/09/12 07:24:54;;;;;;;13.73;10.55;;;;;;;17.83;100.00;92853.50;2580247;22;20083;-84